Time;durP1;ratioP1;P1;durP2;ratioP2;P2;SDS_P1;SDS_P2;PMS_P1;PMS_P2;Temp;Humidity;BMP_temperature;BMP_pressure;BME280_temperature;BME280_humidity;BME280_pressure;Samples;Min_cycle;Max_cycle;Signal;HPM_P1;HPM_P2
2022/01/09 00:00:01;;;;;;;9.35;8.38;;;4.50;99.90;;;;;;5090866;28;20434;-77
2022/01/09 00:02:27;;;;;;;7.93;7.13;;;4.50;99.90;;;;;;5100897;28;20413;-78
2022/01/09 00:04:53;;;;;;;10.93;8.25;;;4.50;99.90;;;;;;5079044;28;20036;-77
2022/01/09 00:07:18;;;;;;;10.70;8.70;;;4.40;99.90;;;;;;5105011;28;20039;-77
2022/01/09 00:09:44;;;;;;;8.60;7.70;;;4.50;99.90;;;;;;5099517;28;20048;-75
2022/01/09 00:12:11;;;;;;;8.52;7.63;;;4.40;99.90;;;;;;5105737;28;20110;-78
2022/01/09 00:14:37;;;;;;;9.82;8.93;;;4.40;99.90;;;;;;5074738;28;20048;-78
2022/01/09 00:17:03;;;;;;;9.32;8.43;;;4.50;99.90;;;;;;5094075;28;20455;-79
2022/01/09 00:19:29;;;;;;;9.40;8.50;;;4.40;99.90;;;;;;5100806;28;20446;-78
2022/01/09 00:21:55;;;;;;;10.90;9.18;;;4.40;99.90;;;;;;5102476;28;20036;-78
2022/01/09 00:24:21;;;;;;;11.55;9.18;;;4.50;99.90;;;;;;5096039;28;20058;-79
2022/01/09 00:26:46;;;;;;;11.27;9.70;;;4.40;99.90;;;;;;5103616;28;20494;-79
2022/01/09 00:29:12;;;;;;;14.82;10.90;;;4.50;99.90;;;;;;5103769;28;20043;-79
2022/01/09 00:31:38;;;;;;;11.00;9.60;;;4.40;99.90;;;;;;5096963;28;20105;-79
2022/01/09 00:34:03;;;;;;;10.18;9.13;;;4.50;99.90;;;;;;5102791;28;20043;-78
2022/01/09 00:36:30;;;;;;;24.25;9.43;;;4.50;99.90;;;;;;5099527;28;20505;-78
2022/01/09 00:38:56;;;;;;;11.73;10.20;;;4.50;99.90;;;;;;5103327;28;20036;-78
2022/01/09 00:41:22;;;;;;;10.63;7.65;;;4.40;99.90;;;;;;5093832;28;20027;-78
2022/01/09 00:43:48;;;;;;;9.23;7.90;;;4.60;99.90;;;;;;5099275;28;20485;-77
2022/01/09 00:46:13;;;;;;;8.25;7.43;;;4.60;99.90;;;;;;5088112;28;20048;-73
2022/01/09 00:48:39;;;;;;;9.50;8.07;;;4.70;99.90;;;;;;5093871;28;20040;-77
2022/01/09 00:51:05;;;;;;;10.00;8.68;;;4.50;99.90;;;;;;5099764;28;20299;-77
2022/01/09 00:53:30;;;;;;;9.05;8.15;;;4.60;99.90;;;;;;5102597;28;20035;-78
2022/01/09 00:55:56;;;;;;;9.82;8.82;;;4.60;99.90;;;;;;5068296;28;20447;-78
2022/01/09 00:58:21;;;;;;;11.25;9.27;;;4.60;99.90;;;;;;5094173;28;20051;-78
2022/01/09 01:00:47;;;;;;;10.35;9.35;;;4.70;99.90;;;;;;5093360;28;20034;-78
2022/01/09 01:03:13;;;;;;;9.93;8.93;;;4.70;99.90;;;;;;5062512;28;20074;-78
2022/01/09 01:05:38;;;;;;;9.82;7.93;;;4.60;99.90;;;;;;5100243;28;20047;-78
2022/01/09 01:08:04;;;;;;;10.60;9.30;;;4.60;99.90;;;;;;5097918;28;20044;-78
2022/01/09 01:10:30;;;;;;;10.40;8.95;;;4.70;99.90;;;;;;5101188;28;20490;-77
2022/01/09 01:12:55;;;;;;;11.73;9.32;;;4.60;99.90;;;;;;5095302;28;20044;-77
2022/01/09 01:15:21;;;;;;;10.13;9.13;;;4.60;99.90;;;;;;5099797;28;20132;-78
2022/01/09 01:17:47;;;;;;;10.75;9.55;;;4.70;99.90;;;;;;5107894;28;20049;-77
2022/01/09 01:20:13;;;;;;;9.75;8.27;;;4.70;99.90;;;;;;5090918;28;20034;-78
2022/01/09 01:22:40;;;;;;;10.30;9.25;;;4.60;99.90;;;;;;5078704;28;20051;-78
2022/01/09 01:25:07;;;;;;;11.30;9.30;;;4.70;99.90;;;;;;5077717;28;20048;-78
2022/01/09 01:27:33;;;;;;;10.27;8.77;;;4.70;99.90;;;;;;5095157;28;20036;-77
2022/01/09 01:29:58;;;;;;;9.23;8.32;;;4.60;99.90;;;;;;5092912;28;20431;-78
2022/01/09 01:32:24;;;;;;;9.80;8.73;;;4.60;99.90;;;;;;5094253;28;20104;-77
2022/01/09 01:34:51;;;;;;;11.80;9.80;;;4.70;99.90;;;;;;5091563;28;20508;-78
2022/01/09 01:37:17;;;;;;;11.77;9.55;;;4.80;99.90;;;;;;5098645;28;20097;-77
2022/01/09 01:39:43;;;;;;;11.68;8.98;;;4.70;99.90;;;;;;5093966;28;20492;-77
2022/01/09 01:42:08;;;;;;;10.60;8.43;;;4.70;99.90;;;;;;5077469;28;20410;-79
2022/01/09 01:44:52;;;;;;;12.20;8.95;;;4.80;99.90;;;;;;5100618;28;20051;-78
2022/01/09 01:47:20;;;;;;;9.63;8.38;;;4.80;99.90;;;;;;5100824;28;20052;-77
2022/01/09 01:49:47;;;;;;;12.00;9.13;;;4.70;99.90;;;;;;5095221;28;20032;-78
2022/01/09 01:52:15;;;;;;;15.73;7.88;;;4.70;99.90;;;;;;5091313;28;20048;-77
2022/01/09 01:54:42;;;;;;;12.35;8.18;;;4.80;99.90;;;;;;5089636;28;20040;-77
2022/01/09 01:57:08;;;;;;;11.45;7.68;;;4.90;99.90;;;;;;5091780;28;20083;-78
2022/01/09 01:59:34;;;;;;;11.43;9.13;;;4.90;99.90;;;;;;5095037;28;20098;-78
2022/01/09 02:01:59;;;;;;;11.77;8.10;;;5.00;99.90;;;;;;5098567;28;20039;-79
2022/01/09 02:04:25;;;;;;;13.57;7.70;;;5.00;99.90;;;;;;5091403;28;20043;-79
2022/01/09 02:06:50;;;;;;;11.43;8.43;;;5.00;99.90;;;;;;5081642;28;20075;-79
2022/01/09 02:09:17;;;;;;;13.70;8.30;;;5.10;99.90;;;;;;5095838;28;20115;-79
2022/01/09 02:11:42;;;;;;;16.17;8.25;;;5.10;99.90;;;;;;5088748;28;20084;-78
2022/01/09 02:14:08;;;;;;;37.35;9.80;;;5.10;99.90;;;;;;5089004;28;20461;-80
2022/01/09 02:16:42;;;;;;;12.75;6.68;;;5.20;99.90;;;;;;5092030;28;20527;-78
2022/01/09 02:19:12;;;;;;;28.58;7.55;;;5.20;99.90;;;;;;5093809;28;20520;-77
2022/01/09 02:21:46;;;;;;;16.15;7.63;;;5.20;99.90;;;;;;5070232;28;20050;-77
2022/01/09 02:24:12;;;;;;;24.77;7.85;;;5.30;99.90;;;;;;5100348;28;20039;-77
2022/01/09 02:26:38;;;;;;;23.33;5.70;;;5.40;99.90;;;;;;5073990;28;20470;-77
2022/01/09 02:29:07;;;;;;;28.27;7.13;;;5.50;99.90;;;;;;5073427;28;20162;-78
2022/01/09 02:31:34;;;;;;;32.22;7.57;;;5.50;99.90;;;;;;5072090;28;20090;-78
2022/01/09 02:34:00;;;;;;;34.17;7.18;;;5.50;99.90;;;;;;5073660;28;20072;-77
2022/01/09 02:36:26;;;;;;;35.88;6.65;;;5.60;99.90;;;;;;5097442;28;20048;-78
2022/01/09 02:38:51;;;;;;;27.65;4.65;;;5.70;99.90;;;;;;5098464;28;20089;-77
2022/01/09 02:41:18;;;;;;;24.38;4.93;;;5.70;99.90;;;;;;5105961;28;20043;-76
2022/01/09 02:43:43;;;;;;;30.50;5.57;;;5.60;99.90;;;;;;5093717;28;20067;-72
2022/01/09 02:46:17;;;;;;;37.58;7.35;;;5.60;99.90;;;;;;5098230;28;20052;-78
2022/01/09 02:48:44;;;;;;;45.25;8.23;;;5.70;99.90;;;;;;5088373;28;20051;-78
2022/01/09 02:51:15;;;;;;;50.10;9.48;;;5.60;99.90;;;;;;5102414;28;20048;-78
2022/01/09 02:53:45;;;;;;;28.17;5.40;;;5.70;99.90;;;;;;5100526;28;20044;-78
2022/01/09 02:56:10;;;;;;;44.20;7.73;;;5.70;99.90;;;;;;5099866;28;20043;-79
2022/01/09 02:58:37;;;;;;;40.17;6.28;;;5.70;99.90;;;;;;5095934;28;20085;-78
2022/01/09 03:01:07;;;;;;;47.97;9.35;;;5.70;99.90;;;;;;5092977;28;20127;-77
2022/01/09 03:03:34;;;;;;;55.90;10.70;;;5.90;99.90;;;;;;5107240;28;20525;-77
2022/01/09 03:06:00;;;;;;;108.13;13.10;;;5.80;99.90;;;;;;5076790;28;20044;-77
2022/01/09 03:08:26;;;;;;;39.88;7.80;;;5.90;99.90;;;;;;5095417;28;20054;-78
2022/01/09 03:10:51;;;;;;;48.55;6.50;;;6.00;99.90;;;;;;5093467;28;20044;-77
2022/01/09 03:13:17;;;;;;;46.13;10.77;;;5.90;99.90;;;;;;5091843;28;20047;-77
2022/01/09 03:15:43;;;;;;;65.30;12.02;;;6.00;99.90;;;;;;5092976;28;20044;-77
2022/01/09 03:18:08;;;;;;;65.05;10.95;;;6.00;99.90;;;;;;5096358;28;20340;-78
2022/01/09 03:20:34;;;;;;;53.53;9.18;;;6.00;99.90;;;;;;5082788;28;20046;-79
2022/01/09 03:23:00;;;;;;;39.47;9.70;;;6.00;99.90;;;;;;5078757;28;20472;-77
2022/01/09 03:25:26;;;;;;;60.45;11.30;;;6.10;99.90;;;;;;5076959;28;20036;-78
2022/01/09 03:27:54;;;;;;;49.00;8.80;;;6.10;99.90;;;;;;5090876;28;20887;-78
2022/01/09 03:30:21;;;;;;;47.83;8.80;;;6.10;99.90;;;;;;5106871;28;20046;-77
2022/01/09 03:32:48;;;;;;;55.95;9.93;;;6.20;99.90;;;;;;5103157;28;20031;-78
2022/01/09 03:35:16;;;;;;;62.92;8.57;;;6.10;99.90;;;;;;5105435;28;20448;-76
2022/01/09 03:37:44;;;;;;;41.92;9.50;;;6.10;99.90;;;;;;5106050;28;20093;-78
2022/01/09 03:40:13;;;;;;;59.30;8.35;;;6.20;99.90;;;;;;5082736;28;20040;-77
2022/01/09 03:42:39;;;;;;;54.30;8.52;;;6.10;99.90;;;;;;5093865;28;20028;-77
2022/01/09 03:45:07;;;;;;;66.50;8.93;;;6.10;99.90;;;;;;5099082;28;20509;-78
2022/01/09 03:47:32;;;;;;;50.50;12.20;;;6.10;99.90;;;;;;5100046;28;20456;-78
2022/01/09 03:49:58;;;;;;;41.80;7.53;;;6.20;99.90;;;;;;5100277;28;20032;-78
2022/01/09 03:52:27;;;;;;;48.25;8.23;;;6.20;99.90;;;;;;5105836;28;20040;-77
2022/01/09 03:54:55;;;;;;;45.47;8.05;;;6.20;99.90;;;;;;5095119;28;20065;-77
2022/01/09 03:57:21;;;;;;;46.78;8.77;;;6.10;99.90;;;;;;5091350;28;20091;-78
2022/01/09 03:59:46;;;;;;;47.78;8.02;;;6.10;99.90;;;;;;5072783;28;20467;-76
2022/01/09 04:02:12;;;;;;;37.30;7.47;;;6.10;99.90;;;;;;5077106;28;20048;-78
2022/01/09 04:04:37;;;;;;;41.67;10.20;;;6.10;99.90;;;;;;5073487;28;20482;-78
2022/01/09 04:07:03;;;;;;;59.25;10.88;;;6.10;99.90;;;;;;5076567;28;20086;-77
2022/01/09 04:09:38;;;;;;;53.35;7.32;;;6.10;99.90;;;;;;5102134;28;20466;-78
2022/01/09 04:12:15;;;;;;;32.33;8.10;;;6.10;99.90;;;;;;5101478;28;20043;-78
2022/01/09 04:14:47;;;;;;;47.70;10.10;;;6.10;99.90;;;;;;5095559;28;20044;-80
2022/01/09 04:17:27;;;;;;;37.78;6.85;;;6.10;99.90;;;;;;5097081;28;20044;-77
2022/01/09 04:19:53;;;;;;;42.90;7.22;;;6.10;99.90;;;;;;5098723;28;20055;-77
2022/01/09 04:22:19;;;;;;;32.00;7.28;;;6.10;99.90;;;;;;5099382;28;20088;-77
2022/01/09 04:24:44;;;;;;;38.28;8.60;;;6.10;99.90;;;;;;5097692;28;20435;-78
2022/01/09 04:27:10;;;;;;;34.72;8.38;;;6.00;99.90;;;;;;5095229;28;20039;-78
2022/01/09 04:29:36;;;;;;;61.00;9.63;;;6.00;99.90;;;;;;5092207;28;20028;-78
2022/01/09 04:32:01;;;;;;;30.75;7.57;;;6.00;99.90;;;;;;5092623;28;20043;-77
2022/01/09 04:34:27;;;;;;;30.27;7.32;;;6.00;99.90;;;;;;5107943;28;20050;-77
2022/01/09 04:36:53;;;;;;;28.50;5.00;;;6.10;99.90;;;;;;5106587;28;20039;-77
2022/01/09 04:39:18;;;;;;;36.88;6.50;;;6.00;99.90;;;;;;5083015;28;20040;-78
2022/01/09 04:41:44;;;;;;;60.28;8.63;;;6.00;99.90;;;;;;5108452;28;20046;-76
2022/01/09 04:44:09;;;;;;;34.55;6.28;;;6.00;99.90;;;;;;5071240;28;20040;-78
2022/01/09 04:46:44;;;;;;;28.27;6.15;;;5.90;99.90;;;;;;5103497;28;20613;-77
2022/01/09 04:49:10;;;;;;;23.13;4.30;;;5.90;99.90;;;;;;5095493;28;20047;-78
2022/01/09 04:51:36;;;;;;;29.38;5.43;;;5.90;99.90;;;;;;5102057;28;20467;-77
2022/01/09 04:54:03;;;;;;;45.55;5.75;;;5.90;99.90;;;;;;5109514;28;20044;-76
2022/01/09 04:56:29;;;;;;;23.92;5.20;;;5.90;99.90;;;;;;5088904;28;20048;-78
2022/01/09 04:58:55;;;;;;;32.95;6.20;;;5.80;99.90;;;;;;5099590;28;20039;-77
2022/01/09 05:01:20;;;;;;;17.15;4.00;;;5.90;99.90;;;;;;5074497;28;20063;-77
2022/01/09 05:03:46;;;;;;;28.13;6.88;;;5.80;99.90;;;;;;5068547;28;20115;-78
2022/01/09 05:06:11;;;;;;;31.17;5.68;;;5.80;99.90;;;;;;5073732;28;20047;-78
2022/01/09 05:08:37;;;;;;;24.33;5.50;;;5.80;99.90;;;;;;5091104;28;20101;-77
2022/01/09 05:11:02;;;;;;;22.75;5.28;;;5.70;99.90;;;;;;5086502;28;20043;-78
2022/01/09 05:13:28;;;;;;;15.73;4.75;;;5.70;99.90;;;;;;5096834;28;20055;-79
2022/01/09 05:15:55;;;;;;;20.38;3.88;;;5.70;99.90;;;;;;5095790;28;20044;-78
2022/01/09 05:18:21;;;;;;;34.30;5.13;;;5.70;99.90;;;;;;5104376;28;20032;-76
2022/01/09 05:20:46;;;;;;;20.83;5.68;;;5.70;99.90;;;;;;5108162;28;20047;-77
2022/01/09 05:23:13;;;;;;;22.83;4.75;;;5.70;99.90;;;;;;5094681;28;20040;-78
2022/01/09 05:25:38;;;;;;;29.25;6.70;;;5.70;99.90;;;;;;5093641;28;20054;-77
2022/01/09 05:28:04;;;;;;;23.23;4.22;;;5.70;99.90;;;;;;5097726;28;20482;-77
2022/01/09 05:30:30;;;;;;;17.42;3.03;;;5.60;99.90;;;;;;5079213;28;20197;-77
2022/01/09 05:32:55;;;;;;;37.05;6.10;;;5.60;99.90;;;;;;5081052;28;20517;-76
2022/01/09 05:35:22;;;;;;;30.92;6.70;;;5.70;99.90;;;;;;5083337;28;20052;-76
2022/01/09 05:37:48;;;;;;;20.13;4.40;;;5.70;99.90;;;;;;5101751;28;20047;-78
2022/01/09 05:40:14;;;;;;;26.70;4.47;;;5.70;99.90;;;;;;5101646;28;20040;-75
2022/01/09 05:42:40;;;;;;;25.05;5.05;;;5.60;99.90;;;;;;5101883;28;20035;-77
2022/01/09 05:45:07;;;;;;;28.33;5.47;;;5.60;99.90;;;;;;5093413;28;20139;-78
2022/01/09 05:47:33;;;;;;;56.45;6.80;;;5.60;99.90;;;;;;5102828;28;20047;-78
2022/01/09 05:49:59;;;;;;;22.48;4.03;;;5.60;99.90;;;;;;5074960;28;20040;-78
2022/01/09 05:52:24;;;;;;;22.15;3.75;;;5.70;99.90;;;;;;5101674;28;20121;-78
2022/01/09 05:54:50;;;;;;;26.08;4.38;;;5.70;99.90;;;;;;5090362;28;20039;-77
2022/01/09 05:57:16;;;;;;;31.02;5.88;;;5.60;99.90;;;;;;5103185;28;20040;-78
2022/01/09 05:59:41;;;;;;;21.08;5.63;;;5.70;99.90;;;;;;5094419;28;20117;-77
2022/01/09 06:02:07;;;;;;;31.30;5.40;;;5.60;99.90;;;;;;5090596;28;20040;-76
2022/01/09 06:04:32;;;;;;;59.08;8.07;;;5.60;99.90;;;;;;5071900;28;20531;-76
2022/01/09 06:06:58;;;;;;;26.20;6.28;;;5.60;99.90;;;;;;5095772;28;20108;-79
2022/01/09 06:09:24;;;;;;;27.65;4.43;;;5.60;99.90;;;;;;5094714;28;20143;-76
2022/01/09 06:11:49;;;;;;;25.73;5.55;;;5.50;99.90;;;;;;5096000;28;20043;-78
2022/01/09 06:14:15;;;;;;;40.42;6.43;;;5.50;99.90;;;;;;5092411;28;20040;-77
2022/01/09 06:16:40;;;;;;;40.53;7.97;;;5.50;99.90;;;;;;5108884;28;20115;-77
2022/01/09 06:19:07;;;;;;;31.10;6.07;;;5.60;99.90;;;;;;5107020;28;20446;-77
2022/01/09 06:21:32;;;;;;;16.65;4.35;;;5.50;99.90;;;;;;5080596;28;20048;-77
2022/01/09 06:23:58;;;;;;;20.55;3.30;;;5.50;99.90;;;;;;5079761;28;20089;-76
2022/01/09 06:26:24;;;;;;;23.83;7.00;;;5.50;99.90;;;;;;5105163;28;20082;-77
2022/01/09 06:28:49;;;;;;;25.38;4.30;;;5.50;99.90;;;;;;5097216;28;20036;-77
2022/01/09 06:31:15;;;;;;;25.02;5.47;;;5.60;99.90;;;;;;5089826;28;20040;-78
2022/01/09 06:33:41;;;;;;;30.77;6.00;;;5.60;99.90;;;;;;5091608;28;20063;-78
2022/01/09 06:36:06;;;;;;;15.20;2.85;;;5.50;99.90;;;;;;5089294;28;20125;-77
2022/01/09 06:38:32;;;;;;;16.67;3.53;;;5.50;99.90;;;;;;5103979;28;20043;-76
2022/01/09 06:40:58;;;;;;;25.98;4.75;;;5.50;99.90;;;;;;5085808;28;20186;-77
2022/01/09 06:43:23;;;;;;;19.50;4.13;;;5.50;99.90;;;;;;5089133;28;20044;-76
2022/01/09 06:45:49;;;;;;;14.68;3.58;;;5.40;99.90;;;;;;5075535;28;20036;-76
2022/01/09 06:48:14;;;;;;;23.98;3.85;;;5.40;99.90;;;;;;5088284;28;20508;-76
2022/01/09 06:50:40;;;;;;;17.17;4.30;;;5.30;99.90;;;;;;5096376;28;20032;-77
2022/01/09 06:53:06;;;;;;;19.73;3.90;;;5.20;99.90;;;;;;5072507;28;20055;-78
2022/01/09 06:55:31;;;;;;;25.42;5.10;;;5.20;99.90;;;;;;5101163;28;20039;-77
2022/01/09 06:57:57;;;;;;;37.15;7.15;;;5.10;99.90;;;;;;5092643;28;20040;-76
2022/01/09 07:00:23;;;;;;;28.45;4.07;;;5.10;99.90;;;;;;5077088;28;20055;-76
2022/01/09 07:02:49;;;;;;;18.45;3.33;;;5.00;99.90;;;;;;5102628;28;20048;-78
2022/01/09 07:05:15;;;;;;;19.75;4.70;;;5.00;99.90;;;;;;5091644;28;20040;-77
2022/01/09 07:07:41;;;;;;;26.85;7.43;;;5.00;99.90;;;;;;5093049;28;20135;-76
2022/01/09 07:10:07;;;;;;;21.05;4.07;;;5.00;99.90;;;;;;5058069;28;20047;-76
2022/01/09 07:12:33;;;;;;;20.52;5.40;;;4.90;99.90;;;;;;5100100;28;20618;-76
2022/01/09 07:14:59;;;;;;;20.00;3.78;;;4.90;99.90;;;;;;5096671;28;20055;-76
2022/01/09 07:17:25;;;;;;;25.08;4.07;;;5.00;99.90;;;;;;5086508;28;20039;-76
2022/01/09 07:19:50;;;;;;;29.13;5.45;;;4.90;99.90;;;;;;5100282;28;20405;-77
2022/01/09 07:22:16;;;;;;;18.00;3.33;;;4.90;99.90;;;;;;5080474;28;20124;-78
2022/01/09 07:24:41;;;;;;;14.27;4.13;;;4.80;99.90;;;;;;5097144;28;20047;-79
2022/01/09 07:27:07;;;;;;;17.67;3.55;;;4.80;99.90;;;;;;5102985;28;20047;-79
2022/01/09 07:29:33;;;;;;;12.50;2.22;;;4.80;99.90;;;;;;5086347;28;20047;-78
2022/01/09 07:31:58;;;;;;;16.23;2.63;;;4.90;99.90;;;;;;5074825;28;20147;-78
2022/01/09 07:34:24;;;;;;;22.52;5.75;;;4.90;99.90;;;;;;5097170;28;20036;-79
2022/01/09 07:36:49;;;;;;;14.80;2.70;;;4.90;99.90;;;;;;5108433;28;20119;-79
2022/01/09 07:39:15;;;;;;;11.48;3.08;;;5.00;99.90;;;;;;5087815;28;20032;-81
2022/01/09 07:41:42;;;;;;;19.10;3.92;;;4.90;99.90;;;;;;5100545;28;20602;-76
2022/01/09 07:44:08;;;;;;;7.45;1.85;;;4.90;99.90;;;;;;5096151;28;20485;-76
2022/01/09 07:46:33;;;;;;;11.02;2.38;;;4.90;99.90;;;;;;5078858;28;20059;-78
2022/01/09 07:48:59;;;;;;;12.25;2.88;;;4.90;99.90;;;;;;5092885;28;20147;-77
2022/01/09 07:51:25;;;;;;;13.10;2.33;;;4.90;99.90;;;;;;5091879;28;20093;-77
2022/01/09 07:53:50;;;;;;;10.30;2.58;;;5.00;99.90;;;;;;5108928;28;20046;-77
2022/01/09 07:56:16;;;;;;;10.77;2.25;;;4.90;99.90;;;;;;5107522;28;20043;-77
2022/01/09 07:58:42;;;;;;;9.20;1.45;;;5.00;99.90;;;;;;5101338;28;20039;-76
2022/01/09 08:01:07;;;;;;;12.13;2.10;;;5.00;99.90;;;;;;5094045;28;20097;-76
2022/01/09 08:03:34;;;;;;;14.48;2.60;;;4.90;99.90;;;;;;5084521;28;20508;-75
2022/01/09 08:06:00;;;;;;;8.93;2.08;;;4.90;99.90;;;;;;5106218;28;20428;-76
2022/01/09 08:08:25;;;;;;;10.10;2.10;;;4.90;99.90;;;;;;5111463;28;20046;-76
2022/01/09 08:10:52;;;;;;;8.00;2.83;;;4.90;99.90;;;;;;5108764;28;20118;-77
2022/01/09 08:13:18;;;;;;;13.07;1.70;;;4.90;99.90;;;;;;5088450;28;20050;-76
2022/01/09 08:15:43;;;;;;;14.85;1.65;;;4.90;99.90;;;;;;5106919;28;20039;-74
2022/01/09 08:18:09;;;;;;;13.82;3.20;;;4.90;99.90;;;;;;5108571;28;20501;-77
2022/01/09 08:20:34;;;;;;;15.20;4.13;;;4.80;99.90;;;;;;5093922;27;20080;-77
2022/01/09 08:23:00;;;;;;;17.02;2.55;;;4.80;99.90;;;;;;5090570;28;20044;-76
2022/01/09 08:25:26;;;;;;;20.63;3.20;;;4.80;99.90;;;;;;5092294;28;20444;-77
2022/01/09 08:27:52;;;;;;;21.98;3.10;;;4.70;99.90;;;;;;5084496;28;20048;-78
2022/01/09 08:30:20;;;;;;;21.73;3.95;;;4.70;99.90;;;;;;5093629;28;20036;-77
2022/01/09 08:32:47;;;;;;;32.80;3.88;;;4.70;99.90;;;;;;5096448;28;20071;-78
2022/01/09 08:35:13;;;;;;;25.27;4.75;;;4.80;99.90;;;;;;5092517;28;20051;-78
2022/01/09 08:37:42;;;;;;;24.92;4.85;;;4.90;99.90;;;;;;5074193;28;20024;-74
2022/01/09 08:40:13;;;;;;;26.63;4.53;;;4.90;99.90;;;;;;5074474;28;20367;-78
2022/01/09 08:42:40;;;;;;;20.25;4.10;;;5.00;99.90;;;;;;5072339;28;20493;-79
2022/01/09 08:45:06;;;;;;;25.85;3.75;;;4.90;99.90;;;;;;5100675;28;20087;-79
2022/01/09 08:47:35;;;;;;;26.20;4.57;;;5.00;99.90;;;;;;5096872;28;20126;-77
2022/01/09 08:50:01;;;;;;;22.63;4.68;;;5.00;99.90;;;;;;5090950;28;20075;-78
2022/01/09 08:52:27;;;;;;;28.73;4.57;;;5.00;99.90;;;;;;5073126;28;20093;-77
2022/01/09 08:54:53;;;;;;;17.92;5.88;;;5.00;99.90;;;;;;5091320;28;20536;-77
2022/01/09 08:57:18;;;;;;;18.88;3.95;;;5.00;99.90;;;;;;5072114;28;20099;-78
2022/01/09 08:59:44;;;;;;;16.67;3.58;;;4.90;99.90;;;;;;5090935;28;20036;-77
2022/01/09 09:02:09;;;;;;;16.23;3.53;;;4.90;99.90;;;;;;5105421;28;20574;-78
2022/01/09 09:04:37;;;;;;;17.83;3.03;;;4.90;99.90;;;;;;5099613;28;20044;-77
2022/01/09 09:07:02;;;;;;;14.35;2.22;;;4.90;99.90;;;;;;5094351;28;20128;-83
2022/01/09 09:09:28;;;;;;;14.05;3.63;;;4.90;99.90;;;;;;5077963;28;20178;-78
2022/01/09 09:11:53;;;;;;;14.00;1.92;;;4.90;99.90;;;;;;5089829;28;20481;-79
2022/01/09 09:14:20;;;;;;;12.52;3.33;;;4.90;99.90;;;;;;5090490;28;20541;-76
2022/01/09 09:16:46;;;;;;;18.52;3.88;;;4.90;99.90;;;;;;5103805;28;20498;-77
2022/01/09 09:19:12;;;;;;;10.60;1.83;;;4.90;99.90;;;;;;5072797;28;20048;-75
2022/01/09 09:21:37;;;;;;;11.40;2.95;;;5.00;99.90;;;;;;5081853;28;20504;-77
2022/01/09 09:24:03;;;;;;;12.63;3.22;;;4.90;99.90;;;;;;5110687;28;20303;-76
2022/01/09 09:26:29;;;;;;;8.02;1.50;;;4.90;99.90;;;;;;5104308;28;20043;-76
2022/01/09 09:28:54;;;;;;;11.63;2.13;;;5.00;99.90;;;;;;5071608;28;20067;-77
2022/01/09 09:31:20;;;;;;;9.38;2.38;;;4.90;99.90;;;;;;5072185;28;20083;-76
2022/01/09 09:33:46;;;;;;;9.18;2.05;;;5.00;99.90;;;;;;5090080;28;20035;-77
2022/01/09 09:36:11;;;;;;;13.32;2.60;;;4.90;99.90;;;;;;5072674;28;20048;-74
2022/01/09 09:38:37;;;;;;;10.88;1.90;;;4.80;99.90;;;;;;5090245;28;20044;-74
2022/01/09 09:41:02;;;;;;;24.02;3.00;;;4.90;99.90;;;;;;5072570;28;20090;-78
2022/01/09 09:43:28;;;;;;;6.78;2.13;;;4.90;99.90;;;;;;5071450;28;20044;-77
2022/01/09 09:45:54;;;;;;;16.85;3.05;;;4.80;99.90;;;;;;5071705;28;20415;-78
2022/01/09 09:48:20;;;;;;;16.58;2.70;;;4.80;99.90;;;;;;5089997;28;20464;-79
2022/01/09 09:50:46;;;;;;;11.60;1.77;;;4.80;99.90;;;;;;5090355;28;20036;-81
2022/01/09 09:53:12;;;;;;;8.90;1.52;;;4.80;99.90;;;;;;5109593;28;20079;-80
2022/01/09 09:55:39;;;;;;;8.63;1.33;;;4.90;99.90;;;;;;5110986;28;20067;-80
2022/01/09 09:58:04;;;;;;;15.30;2.47;;;4.90;99.90;;;;;;5094773;28;20047;-80
2022/01/09 10:00:30;;;;;;;10.93;1.95;;;4.80;99.90;;;;;;5111037;28;20122;-74
2022/01/09 10:02:59;;;;;;;13.50;2.20;;;4.90;99.90;;;;;;5111921;28;20044;-76
2022/01/09 10:05:27;;;;;;;8.43;2.13;;;4.80;99.90;;;;;;5091866;28;20169;-76
2022/01/09 10:08:03;;;;;;;9.10;2.03;;;4.90;99.90;;;;;;5112643;28;20406;-83
2022/01/09 10:10:33;;;;;;;9.20;2.22;;;5.00;99.90;;;;;;5114409;28;20035;-78
2022/01/09 10:13:10;;;;;;;12.63;3.88;;;5.10;99.90;;;;;;5105624;28;20115;-83
2022/01/09 10:15:52;;;;;;;10.85;2.80;;;5.20;99.90;;;;;;5087505;28;20424;-83
2022/01/09 10:18:43;;;;;;;22.65;4.20;;;5.20;99.90;;;;;;5074940;28;20098;-80
2022/01/09 10:21:14;;;;;;;14.68;2.33;;;5.20;99.90;;;;;;5082936;28;20052;-83
2022/01/09 10:24:01;;;;;;;14.77;3.00;;;5.30;99.90;;;;;;5093221;28;20036;-80
2022/01/09 10:26:29;;;;;;;21.40;3.38;;;5.40;99.90;;;;;;5111200;28;20132;-76
2022/01/09 10:28:55;;;;;;;11.23;2.60;;;5.40;99.90;;;;;;5084711;28;20066;-80
2022/01/09 10:31:21;;;;;;;19.70;4.18;;;5.50;99.90;;;;;;5090747;28;20064;-79
2022/01/09 10:34:08;;;;;;;13.07;2.55;;;5.40;99.90;;;;;;5090061;28;20028;-79
2022/01/09 10:36:45;;;;;;;15.70;2.95;;;5.50;99.90;;;;;;5096083;28;21081;-79
2022/01/09 10:39:14;;;;;;;9.43;3.05;;;5.60;99.90;;;;;;5092275;28;20039;-78
2022/01/09 10:41:58;;;;;;;11.70;2.90;;;5.60;99.90;;;;;;5109672;28;20036;-78
2022/01/09 10:44:30;;;;;;;15.88;3.83;;;5.60;99.90;;;;;;5087479;28;20056;-82
2022/01/09 10:47:00;;;;;;;11.18;2.38;;;5.70;99.90;;;;;;5090743;28;20126;-78
2022/01/09 10:49:36;;;;;;;15.02;2.42;;;5.70;99.90;;;;;;5071261;28;20103;-80
2022/01/09 10:52:15;;;;;;;16.63;3.47;;;5.70;99.90;;;;;;5091286;28;20545;-78
2022/01/09 10:54:46;;;;;;;10.90;1.67;;;5.70;99.90;;;;;;5100486;28;20055;-75
2022/01/09 10:57:22;;;;;;;17.30;4.88;;;5.80;99.90;;;;;;5105184;28;20040;-79
2022/01/09 10:59:49;;;;;;;13.20;1.95;;;5.90;99.90;;;;;;5095188;28;20464;-80
2022/01/09 11:02:15;;;;;;;20.17;4.18;;;6.00;99.90;;;;;;5105644;28;20035;-78
2022/01/09 11:04:42;;;;;;;13.48;2.97;;;5.90;99.90;;;;;;5105283;28;20485;-79
2022/01/09 11:07:09;;;;;;;13.25;3.53;;;6.00;99.90;;;;;;5107789;28;20104;-80
2022/01/09 11:09:38;;;;;;;16.20;5.53;;;6.10;99.90;;;;;;5079369;28;20040;-80
2022/01/09 11:12:07;;;;;;;14.18;3.25;;;6.20;99.90;;;;;;5101708;28;20048;-80
2022/01/09 11:14:36;;;;;;;14.35;3.15;;;6.30;99.90;;;;;;5113617;28;20032;-82
2022/01/09 11:17:05;;;;;;;10.43;2.05;;;6.30;99.90;;;;;;5115118;28;20047;-81
2022/01/09 11:19:33;;;;;;;12.85;3.53;;;6.40;99.90;;;;;;5086125;28;20068;-84
2022/01/09 11:22:05;;;;;;;6.40;1.58;;;6.40;99.90;;;;;;5093989;28;20477;-82
2022/01/09 11:24:49;;;;;;;10.45;2.45;;;6.40;99.90;;;;;;5095004;28;20039;-81
2022/01/09 11:27:22;;;;;;;15.57;3.85;;;6.60;99.90;;;;;;5074644;28;20520;-83
2022/01/09 11:30:09;;;;;;;13.27;2.03;;;6.60;99.90;;;;;;5075982;28;20047;-83
2022/01/09 11:33:12;;;;;;;9.18;1.35;;;6.60;99.90;;;;;;5074169;28;20490;-85
2022/01/09 11:35:38;;;;;;;15.50;1.50;;;6.70;99.90;;;;;;5074496;28;20498;-82
2022/01/09 11:38:45;;;;;;;12.68;3.10;;;6.70;99.90;;;;;;5094988;28;20169;-82
2022/01/09 11:41:24;;;;;;;16.67;4.07;;;6.70;99.90;;;;;;5094961;28;20083;-82
2022/01/09 11:43:57;;;;;;;9.35;2.60;;;6.70;99.90;;;;;;5103696;28;20059;-82
2022/01/09 11:46:26;;;;;;;8.35;1.83;;;6.70;99.90;;;;;;5104293;28;20059;-82
2022/01/09 11:48:51;;;;;;;11.18;2.97;;;6.70;99.90;;;;;;5095567;28;20040;-83
2022/01/09 11:51:18;;;;;;;15.85;3.42;;;6.60;99.90;;;;;;5074110;28;20508;-82
2022/01/09 11:53:58;;;;;;;10.07;2.33;;;6.60;99.90;;;;;;5108493;27;20046;-79
2022/01/09 11:56:48;;;;;;;6.85;1.90;;;6.60;99.90;;;;;;5111238;28;20088;-82
2022/01/09 11:59:35;;;;;;;12.63;2.50;;;6.60;99.90;;;;;;5112225;28;20123;-71
2022/01/09 12:02:06;;;;;;;12.32;4.28;;;6.50;99.90;;;;;;5090614;28;20097;-84
2022/01/09 12:04:35;;;;;;;12.40;2.17;;;6.40;99.90;;;;;;5089413;28;20092;-83
2022/01/09 12:07:16;;;;;;;12.80;2.85;;;6.40;99.90;;;;;;5091422;28;20531;-85
2022/01/09 12:09:45;;;;;;;19.60;2.45;;;6.50;99.90;;;;;;5086176;28;20048;-84
2022/01/09 12:12:15;;;;;;;11.95;2.58;;;6.60;99.90;;;;;;5091439;28;20046;-84
2022/01/09 12:14:58;;;;;;;12.48;2.75;;;6.80;99.90;;;;;;5092531;28;20051;-85
2022/01/09 12:17:26;;;;;;;10.10;2.63;;;6.80;99.90;;;;;;5091527;28;20051;-86
2022/01/09 12:20:14;;;;;;;11.40;1.48;;;6.70;99.90;;;;;;5095251;27;20040;-83
2022/01/09 12:22:43;;;;;;;16.33;2.83;;;6.60;99.90;;;;;;5093429;28;20063;-84
2022/01/09 12:25:10;;;;;;;12.10;2.83;;;6.50;99.90;;;;;;5093198;28;20048;-79
2022/01/09 12:27:35;;;;;;;11.45;2.65;;;6.50;99.90;;;;;;5072396;28;20161;-81
2022/01/09 12:30:33;;;;;;;12.40;2.97;;;6.50;99.90;;;;;;5118934;27;20189;-81
2022/01/09 12:33:25;;;;;;;27.20;3.95;;;6.50;99.90;;;;;;5104908;27;20053;-82
2022/01/09 12:36:07;;;;;;;9.93;2.40;;;6.50;99.90;;;;;;5113775;27;20047;-80
2022/01/09 12:38:35;;;;;;;5.93;1.88;;;6.40;99.90;;;;;;5121046;27;20036;-81
2022/01/09 12:41:04;;;;;;;6.95;1.50;;;6.20;99.90;;;;;;5077534;28;20461;-80
2022/01/09 12:43:31;;;;;;;9.88;1.77;;;6.00;99.90;;;;;;5090908;28;20051;-82
2022/01/09 12:45:57;;;;;;;11.27;1.63;;;6.00;99.90;;;;;;5073183;28;20055;-82
2022/01/09 12:48:28;;;;;;;10.27;2.10;;;5.90;99.90;;;;;;5091240;28;20409;-80
2022/01/09 12:50:56;;;;;;;11.07;1.85;;;5.90;99.90;;;;;;5091525;27;20032;-83